Time;durP1;ratioP1;P1;durP2;ratioP2;P2;SDS_P1;SDS_P2;PMS_P1;PMS_P2;Temp;Humidity;BMP_temperature;BMP_pressure;BME280_temperature;BME280_humidity;BME280_pressure;Samples;Min_cycle;Max_cycle;Signal;HPM_P1;HPM_P2
2022/03/18 00:01:36;;;;;;;1845.70;104.53;;;3.90;99.90;196.50;224877.00;;;;7397043;19;20125;-78
2022/03/18 00:04:03;;;;;;;1999.90;124.83;;;3.90;99.90;196.50;224877.00;;;;7395943;19;20149;-78
2022/03/18 00:06:31;;;;;;;1999.90;107.60;;;3.90;99.90;196.50;224877.00;;;;7395649;19;20140;-78
2022/03/18 00:09:04;;;;;;;1999.90;134.57;;;3.90;99.90;196.50;224877.00;;;;7396514;19;20145;-77
2022/03/18 00:11:31;;;;;;;1895.20;96.90;;;3.90;99.90;196.50;224877.00;;;;7395731;19;20140;-77
2022/03/18 00:14:02;;;;;;;1941.30;109.47;;;3.80;99.90;196.50;224877.00;;;;7395929;19;20124;-79
2022/03/18 00:16:36;;;;;;;1830.93;94.90;;;3.80;99.90;196.50;224877.00;;;;7397146;19;20489;-78
2022/03/18 00:19:04;;;;;;;1999.90;117.87;;;3.80;99.90;196.50;224877.00;;;;7395504;19;20132;-78
2022/03/18 00:21:31;;;;;;;1830.47;100.37;;;3.80;99.90;196.50;224877.00;;;;7395214;19;20156;-77
2022/03/18 00:24:06;;;;;;;1884.07;106.93;;;3.80;99.90;196.50;224877.00;;;;7396355;19;20470;-77
2022/03/18 00:26:33;;;;;;;1928.27;102.87;;;3.80;99.90;196.50;224877.00;;;;7395731;19;20129;-78
2022/03/18 00:29:07;;;;;;;1762.83;110.67;;;3.80;99.90;196.50;224877.00;;;;7393837;19;20153;-78
2022/03/18 00:31:47;;;;;;;1871.47;104.57;;;3.80;99.90;196.50;224877.00;;;;7395794;19;20129;-79
2022/03/18 00:34:14;;;;;;;1759.73;104.03;;;3.80;99.90;196.50;224877.00;;;;7396149;19;20121;-78
2022/03/18 00:36:49;;;;;;;1915.80;102.10;;;3.80;99.90;196.50;224877.00;;;;7397472;19;20129;-78
2022/03/18 00:39:16;;;;;;;1661.67;102.30;;;3.80;99.90;196.50;224877.00;;;;7394905;19;20158;-79
2022/03/18 00:41:43;;;;;;;1540.77;90.30;;;3.80;99.90;196.50;224877.00;;;;7395141;19;20631;-79
2022/03/18 00:44:17;;;;;;;1815.47;106.23;;;3.70;99.90;196.50;224877.00;;;;7395332;19;20137;-78
2022/03/18 00:46:44;;;;;;;1950.37;101.07;;;3.70;99.90;196.50;224877.00;;;;7393777;19;20200;-78
2022/03/18 00:52:05;;;;;;;1599.13;95.87;;;3.70;99.90;196.50;224877.00;;;;7395651;19;20140;-78
2022/03/18 00:54:32;;;;;;;1672.97;106.93;;;3.70;99.90;196.50;224877.00;;;;7394944;19;20217;-79
2022/03/18 00:57:00;;;;;;;1515.53;89.97;;;3.70;99.90;196.50;224877.00;;;;7393677;19;20121;-78
2022/03/18 00:59:33;;;;;;;1550.90;100.17;;;3.70;99.90;196.50;224877.00;;;;7393738;19;20169;-77
2022/03/18 01:02:01;;;;;;;1744.53;96.90;;;3.70;99.90;196.50;224877.00;;;;7393371;19;20129;-79
2022/03/18 01:04:28;;;;;;;1854.33;100.13;;;3.70;99.90;196.50;224877.00;;;;7393972;19;20137;-79
2022/03/18 01:07:02;;;;;;;1431.30;85.57;;;3.70;99.90;196.50;224877.00;;;;7393597;19;20612;-77
2022/03/18 01:09:29;;;;;;;1268.53;83.13;;;3.70;99.90;196.50;224877.00;;;;7392086;19;20212;-78
2022/03/18 01:11:56;;;;;;;1543.20;96.87;;;3.70;99.90;196.50;224877.00;;;;7388399;19;20136;-79
2022/03/18 01:14:30;;;;;;;1153.20;74.10;;;3.70;99.90;196.50;224877.00;;;;7393951;19;20608;-78
2022/03/18 01:16:57;;;;;;;1726.73;98.57;;;3.70;99.90;196.50;224877.00;;;;7393894;19;20205;-78
2022/03/18 01:19:24;;;;;;;1520.50;96.73;;;3.70;99.90;196.50;224877.00;;;;7390930;19;20121;-77
2022/03/18 01:21:58;;;;;;;1503.63;91.60;;;3.60;99.90;196.50;224877.00;;;;7392220;19;20137;-78
2022/03/18 01:24:25;;;;;;;1265.20;80.90;;;3.60;99.90;196.50;224877.00;;;;7390152;19;20133;-78
2022/03/18 01:26:52;;;;;;;1730.33;111.07;;;3.60;99.90;196.50;224877.00;;;;7392187;19;20176;-79
2022/03/18 01:29:34;;;;;;;1768.17;97.97;;;3.70;99.90;196.50;224877.00;;;;7391703;19;20175;-78
2022/03/18 01:32:01;;;;;;;1453.37;85.50;;;3.60;99.90;196.50;224877.00;;;;7394027;19;20120;-77
2022/03/18 01:34:35;;;;;;;1729.87;104.47;;;3.60;99.90;196.50;224877.00;;;;7392668;19;20140;-78
2022/03/18 01:37:02;;;;;;;1351.33;86.60;;;3.60;99.90;196.50;224877.00;;;;7393509;19;20129;-78
2022/03/18 01:39:29;;;;;;;1044.20;78.83;;;3.60;99.90;196.50;224877.00;;;;7394518;19;20588;-78
2022/03/18 01:42:04;;;;;;;1712.27;100.97;;;3.60;99.90;196.50;224877.00;;;;7393268;19;20129;-77
2022/03/18 01:44:40;;;;;;;1581.53;94.13;;;3.60;99.90;196.50;224877.00;;;;7392989;19;20129;-76
2022/03/18 01:47:14;;;;;;;1640.40;92.90;;;3.60;99.90;196.50;224877.00;;;;7393539;19;20204;-77
2022/03/18 01:49:42;;;;;;;1452.07;90.70;;;3.60;99.90;196.50;224877.00;;;;7393185;19;20479;-78
2022/03/18 01:52:12;;;;;;;1290.83;95.07;;;3.60;99.90;196.50;224877.00;;;;7394468;19;20140;-77
2022/03/18 01:54:47;;;;;;;1012.23;85.50;;;3.50;99.90;196.50;224877.00;;;;7392090;19;20796;-78
2022/03/18 01:57:28;;;;;;;878.17;60.90;;;3.50;99.90;196.50;224877.00;;;;7393931;19;20606;-78
2022/03/18 02:00:04;;;;;;;1584.60;96.83;;;3.50;99.90;196.50;224877.00;;;;7395735;19;20152;-77
2022/03/18 02:02:31;;;;;;;1138.27;79.33;;;3.50;99.90;196.50;224877.00;;;;7395544;19;20165;-77
2022/03/18 02:04:59;;;;;;;1204.80;92.83;;;3.50;99.90;196.50;224877.00;;;;7392618;19;20154;-79
2022/03/18 02:07:32;;;;;;;1418.80;87.33;;;3.50;99.90;196.50;224877.00;;;;7394727;19;20624;-77
2022/03/18 02:10:00;;;;;;;934.77;72.13;;;3.50;99.90;196.50;224877.00;;;;7396322;19;20161;-77
2022/03/18 02:12:27;;;;;;;1320.53;85.27;;;3.50;99.90;196.50;224877.00;;;;7394780;19;20607;-77
2022/03/18 02:15:00;;;;;;;886.10;67.83;;;3.50;99.90;196.50;224877.00;;;;7393546;19;20587;-78
2022/03/18 02:17:27;;;;;;;1022.10;81.93;;;3.50;99.90;196.50;224877.00;;;;7392766;19;20201;-77
2022/03/18 02:19:54;;;;;;;1268.03;82.80;;;3.50;99.90;196.50;224877.00;;;;7393828;19;20151;-77
2022/03/18 02:22:40;;;;;;;1575.33;82.23;;;3.50;99.90;196.50;224877.00;;;;7396366;19;20201;-77
2022/03/18 02:25:09;;;;;;;1283.30;77.30;;;3.50;99.90;196.50;224877.00;;;;7392861;19;20523;-77
2022/03/18 02:28:09;;;;;;;1595.43;94.53;;;3.40;99.90;196.50;224877.00;;;;7393893;19;20148;-77
2022/03/18 02:30:43;;;;;;;1253.07;85.67;;;3.40;99.90;196.50;224877.00;;;;7393040;19;20486;-78
2022/03/18 02:33:17;;;;;;;1290.40;81.90;;;3.40;99.90;196.50;224877.00;;;;7393476;19;20156;-78
2022/03/18 02:35:44;;;;;;;1291.23;85.80;;;3.40;99.90;196.50;224877.00;;;;7393601;19;20549;-79
2022/03/18 02:38:11;;;;;;;1281.83;81.50;;;3.40;99.90;196.50;224877.00;;;;7394654;19;20472;-78
2022/03/18 02:40:45;;;;;;;1135.17;71.50;;;3.40;99.90;196.50;224877.00;;;;7392071;19;20675;-77
2022/03/18 02:43:12;;;;;;;1092.63;77.03;;;3.40;99.90;196.50;224877.00;;;;7391773;19;20144;-78
2022/03/18 02:45:39;;;;;;;1121.77;73.63;;;3.40;99.90;196.50;224877.00;;;;7393274;19;20616;-77
2022/03/18 02:48:13;;;;;;;1005.57;76.83;;;3.40;99.90;196.50;224877.00;;;;7394420;19;20595;-78
2022/03/18 02:50:40;;;;;;;744.83;61.47;;;3.40;99.90;196.50;224877.00;;;;7390434;19;20915;-78
2022/03/18 02:53:07;;;;;;;1090.17;71.13;;;3.40;99.90;196.50;224877.00;;;;7393674;19;20208;-77
2022/03/18 02:55:41;;;;;;;877.10;67.40;;;3.40;99.90;196.50;224877.00;;;;7388880;19;20493;-77
2022/03/18 02:58:08;;;;;;;1086.03;73.77;;;3.40;99.90;196.50;224877.00;;;;7387046;19;20632;-77
2022/03/18 03:00:36;;;;;;;1105.03;80.30;;;3.40;99.90;196.50;224877.00;;;;7391248;19;20137;-78
2022/03/18 03:03:09;;;;;;;1389.93;86.27;;;3.40;99.90;196.50;224877.00;;;;7390008;19;20138;-77
2022/03/18 03:08:31;;;;;;;972.37;63.53;;;3.40;99.90;196.50;224877.00;;;;7390540;19;20857;-78
2022/03/18 03:10:58;;;;;;;1155.03;67.87;;;3.40;99.90;196.50;224877.00;;;;7390891;19;20150;-78
2022/03/18 03:13:26;;;;;;;1014.33;74.20;;;3.40;99.90;196.50;224877.00;;;;7390956;19;20125;-77
2022/03/18 03:16:02;;;;;;;1259.73;74.23;;;3.40;99.90;196.50;224877.00;;;;7390071;19;20148;-77
2022/03/18 03:18:30;;;;;;;1200.37;79.00;;;3.40;99.90;196.50;224877.00;;;;7390043;19;20143;-77
2022/03/18 03:20:57;;;;;;;958.80;69.07;;;3.40;99.90;196.50;224877.00;;;;7390692;19;20169;-79
2022/03/18 03:23:31;;;;;;;963.10;62.63;;;3.40;99.90;196.50;224877.00;;;;7388752;19;20488;-77
2022/03/18 03:25:58;;;;;;;1245.93;82.47;;;3.40;99.90;196.50;224877.00;;;;7388465;19;20160;-78
2022/03/18 03:28:25;;;;;;;1373.53;81.80;;;3.30;99.90;196.50;224877.00;;;;7389466;19;20224;-77
2022/03/18 03:31:06;;;;;;;1159.10;78.03;;;3.30;99.90;196.50;224877.00;;;;7390454;19;20457;-78
2022/03/18 03:33:33;;;;;;;1240.93;74.13;;;3.40;99.90;196.50;224877.00;;;;7390251;19;20145;-78
2022/03/18 03:36:07;;;;;;;1011.50;70.97;;;3.40;99.90;196.50;224877.00;;;;7389533;19;20603;-77
2022/03/18 03:38:35;;;;;;;923.67;68.47;;;3.30;99.90;196.50;224877.00;;;;7391433;19;20137;-78
2022/03/18 03:41:02;;;;;;;656.33;56.37;;;3.30;99.90;196.50;224877.00;;;;7389749;19;20505;-77
2022/03/18 03:43:36;;;;;;;856.90;67.67;;;3.30;99.90;196.50;224877.00;;;;7394853;19;20527;-78
2022/03/18 03:46:04;;;;;;;317.97;47.57;;;3.30;99.90;196.50;224877.00;;;;7397377;19;20655;-78
2022/03/18 03:48:31;;;;;;;833.63;66.33;;;3.30;99.90;196.50;224877.00;;;;7398901;19;20509;-78
2022/03/18 03:51:04;;;;;;;863.57;67.27;;;3.30;99.90;196.50;224877.00;;;;7397420;19;20141;-77
2022/03/18 03:53:31;;;;;;;870.93;61.20;;;3.30;99.90;196.50;224877.00;;;;7396346;19;20587;-78
2022/03/18 03:55:58;;;;;;;288.53;44.67;;;3.30;99.90;196.50;224877.00;;;;7398694;19;20599;-78
2022/03/18 03:58:32;;;;;;;340.20;47.67;;;3.30;99.90;196.50;224877.00;;;;7395833;19;20121;-78
2022/03/18 04:00:59;;;;;;;522.13;56.80;;;3.30;99.90;196.50;224877.00;;;;7396601;19;20145;-77
2022/03/18 04:03:28;;;;;;;336.20;48.90;;;3.30;99.90;196.50;224877.00;;;;7395727;19;20160;-77
2022/03/18 04:06:01;;;;;;;549.60;55.40;;;3.30;99.90;196.50;224877.00;;;;7396753;19;20132;-79
2022/03/18 04:08:29;;;;;;;419.93;48.77;;;3.30;99.90;196.50;224877.00;;;;7396133;19;20135;-78
2022/03/18 04:10:57;;;;;;;977.93;67.70;;;3.30;99.90;196.50;224877.00;;;;7396797;19;20629;-77
2022/03/18 04:13:30;;;;;;;485.23;51.67;;;3.30;99.90;196.50;224877.00;;;;7398551;19;20201;-77
2022/03/18 04:15:57;;;;;;;492.43;53.20;;;3.30;99.90;196.50;224877.00;;;;7395934;19;20165;-78
2022/03/18 04:18:24;;;;;;;630.20;61.43;;;3.30;99.90;196.50;224877.00;;;;7395505;19;20495;-78
2022/03/18 04:20:58;;;;;;;929.33;67.07;;;3.30;99.90;196.50;224877.00;;;;7398741;19;20125;-79
2022/03/18 04:23:25;;;;;;;520.23;52.83;;;3.30;99.90;196.50;224877.00;;;;7396941;19;20141;-77
2022/03/18 04:25:52;;;;;;;608.40;58.10;;;3.30;99.90;196.50;224877.00;;;;7395383;19;20524;-77
2022/03/18 04:28:39;;;;;;;302.47;43.50;;;3.20;99.90;196.50;224877.00;;;;7396276;19;20133;-79
2022/03/18 04:31:13;;;;;;;548.67;56.50;;;3.20;99.90;196.50;224877.00;;;;7397730;19;20604;-78
2022/03/18 04:33:49;;;;;;;344.37;46.40;;;3.20;99.90;196.50;224877.00;;;;7396807;19;20132;-78
2022/03/18 04:36:16;;;;;;;389.67;48.53;;;3.20;99.90;196.50;224877.00;;;;7396615;19;20144;-78
2022/03/18 04:38:43;;;;;;;290.20;45.10;;;3.20;99.90;196.50;224877.00;;;;7397214;19;20553;-79
2022/03/18 04:41:17;;;;;;;123.30;35.90;;;3.20;99.90;196.50;224877.00;;;;7397171;19;20482;-79
2022/03/18 04:43:44;;;;;;;284.97;40.40;;;3.20;99.90;196.50;224877.00;;;;7394253;19;20479;-78
2022/03/18 04:46:12;;;;;;;130.70;35.50;;;3.20;99.90;196.50;224877.00;;;;7395592;19;20141;-78
2022/03/18 04:48:45;;;;;;;240.87;42.23;;;3.20;99.90;196.50;224877.00;;;;7397587;19;20128;-78
2022/03/18 04:51:12;;;;;;;414.77;45.07;;;3.20;99.90;196.50;224877.00;;;;7397653;19;20128;-78
2022/03/18 04:53:40;;;;;;;337.13;44.70;;;3.20;99.90;196.50;224877.00;;;;7394736;19;20453;-78
2022/03/18 04:58:58;;;;;;;608.53;59.20;;;3.20;99.90;196.50;224877.00;;;;7397194;19;20508;-78
2022/03/18 05:01:32;;;;;;;404.83;45.07;;;3.20;99.90;196.50;224877.00;;;;7394317;19;20140;-80
2022/03/18 05:03:59;;;;;;;404.70;47.23;;;3.20;99.90;196.50;224877.00;;;;7392724;19;20196;-77
2022/03/18 05:06:26;;;;;;;533.97;51.47;;;3.20;99.90;196.50;224877.00;;;;7394253;19;20125;-79
2022/03/18 05:09:00;;;;;;;496.87;58.57;;;3.10;99.90;196.50;224877.00;;;;7397103;19;20129;-78
2022/03/18 05:11:28;;;;;;;536.23;52.60;;;3.10;99.90;196.50;224877.00;;;;7392412;19;20141;-79
2022/03/18 05:13:57;;;;;;;166.40;39.10;;;3.10;99.90;196.50;224877.00;;;;7393339;19;20133;-79
2022/03/18 05:16:31;;;;;;;476.20;49.63;;;3.10;99.90;196.50;224877.00;;;;7397070;19;20129;-78
2022/03/18 05:19:00;;;;;;;235.93;41.53;;;3.20;99.90;196.50;224877.00;;;;7396588;19;20208;-78
2022/03/18 05:21:29;;;;;;;422.77;50.07;;;3.20;99.90;196.50;224877.00;;;;7397592;19;20629;-77
2022/03/18 05:24:04;;;;;;;425.30;50.77;;;3.10;99.90;196.50;224877.00;;;;7395351;19;20564;-79
2022/03/18 05:26:31;;;;;;;484.47;58.30;;;3.10;99.90;196.50;224877.00;;;;7395052;19;20152;-78
2022/03/18 05:28:58;;;;;;;179.80;42.37;;;3.10;99.90;196.50;224877.00;;;;7394020;19;20646;-78
2022/03/18 05:31:39;;;;;;;165.90;41.83;;;3.10;99.90;196.50;224877.00;;;;7395217;19;20139;-78
2022/03/18 05:34:06;;;;;;;125.70;40.20;;;3.10;99.90;196.50;224877.00;;;;7396488;19;20212;-77
2022/03/18 05:36:43;;;;;;;196.40;44.97;;;3.10;99.90;196.50;224877.00;;;;7396087;19;20204;-77
2022/03/18 05:39:10;;;;;;;126.13;39.67;;;3.10;99.90;196.50;224877.00;;;;7395658;19;20141;-79
2022/03/18 05:41:38;;;;;;;112.73;39.17;;;3.10;99.90;196.50;224877.00;;;;7395945;19;20525;-79
2022/03/18 05:44:12;;;;;;;141.37;41.57;;;3.10;99.90;196.50;224877.00;;;;7395318;19;20137;-78
2022/03/18 05:46:44;;;;;;;130.23;41.10;;;3.10;99.90;196.50;224877.00;;;;7394766;19;20153;-76
2022/03/18 05:49:18;;;;;;;134.10;40.10;;;3.10;99.90;196.50;224877.00;;;;7393274;19;20144;-77
2022/03/18 05:51:46;;;;;;;123.97;41.97;;;3.10;99.90;196.50;224877.00;;;;7393216;19;20215;-77
2022/03/18 05:54:14;;;;;;;121.80;39.90;;;3.10;99.90;196.50;224877.00;;;;7396920;19;20133;-77
2022/03/18 05:56:53;;;;;;;160.87;42.90;;;3.10;99.90;196.50;224877.00;;;;7396246;19;20136;-78
2022/03/18 05:59:27;;;;;;;125.73;41.47;;;3.10;99.90;196.50;224877.00;;;;7393904;19;20149;-79
2022/03/18 06:02:01;;;;;;;139.50;41.40;;;3.10;99.90;196.50;224877.00;;;;7392792;19;20160;-78
2022/03/18 06:04:31;;;;;;;142.40;40.87;;;3.10;99.90;196.50;224877.00;;;;7388112;19;20733;-77
2022/03/18 06:07:03;;;;;;;159.17;42.53;;;3.10;99.90;196.50;224877.00;;;;7398210;19;20137;-77
2022/03/18 06:12:28;;;;;;;122.87;39.40;;;3.20;99.90;196.50;224877.00;;;;7399409;19;20133;-78
2022/03/18 06:15:05;;;;;;;130.10;39.73;;;3.10;99.90;196.50;224877.00;;;;7398011;19;20152;-79
2022/03/18 06:17:33;;;;;;;121.77;40.33;;;3.10;99.90;196.50;224877.00;;;;7399085;19;20625;-77
2022/03/18 06:20:00;;;;;;;124.37;40.87;;;3.10;99.90;196.50;224877.00;;;;7400326;19;20153;-76
2022/03/18 06:22:34;;;;;;;117.70;40.13;;;3.10;99.90;196.50;224877.00;;;;7400551;19;20615;-78
2022/03/18 06:25:03;;;;;;;108.00;39.20;;;3.10;99.90;196.50;224877.00;;;;7397186;19;20137;-80
2022/03/18 06:27:31;;;;;;;127.87;42.60;;;3.10;99.90;196.50;224877.00;;;;7398820;19;20143;-78
2022/03/18 06:30:13;;;;;;;136.63;41.33;;;3.10;99.90;196.50;224877.00;;;;7396926;19;20168;-78
2022/03/18 06:32:48;;;;;;;111.67;40.30;;;3.10;99.90;196.50;224877.00;;;;7397739;19;20136;-78
2022/03/18 06:35:21;;;;;;;110.40;39.27;;;3.10;99.90;196.50;224877.00;;;;7399669;19;20144;-79
2022/03/18 06:37:49;;;;;;;110.43;38.37;;;3.10;99.90;196.50;224877.00;;;;7399585;19;20129;-78
2022/03/18 06:40:16;;;;;;;108.30;39.23;;;3.10;99.90;196.50;224877.00;;;;7397253;19;20136;-76
2022/03/18 06:42:50;;;;;;;131.50;40.63;;;3.10;99.90;196.50;224877.00;;;;7396878;19;21049;-77
2022/03/18 06:45:18;;;;;;;171.50;40.83;;;3.20;99.90;196.50;224877.00;;;;7396380;19;20205;-78
2022/03/18 06:47:45;;;;;;;132.43;41.57;;;3.10;99.90;196.50;224877.00;;;;7397442;19;20599;-77
2022/03/18 06:50:22;;;;;;;168.40;40.67;;;3.20;99.90;196.50;224877.00;;;;7397076;19;20485;-77
2022/03/18 06:52:51;;;;;;;399.47;49.53;;;3.20;99.90;196.50;224877.00;;;;7398621;19;20147;-78
2022/03/18 06:55:19;;;;;;;140.80;41.57;;;3.20;99.90;196.50;224877.00;;;;7397644;19;20137;-77
2022/03/18 06:57:53;;;;;;;136.80;40.03;;;3.20;99.90;196.50;224877.00;;;;7398212;19;20145;-77
2022/03/18 07:00:20;;;;;;;118.33;38.80;;;3.20;99.90;196.50;224877.00;;;;7397029;19;20137;-80
2022/03/18 07:02:47;;;;;;;125.40;40.37;;;3.20;99.90;196.50;224877.00;;;;7396765;19;20147;-77
2022/03/18 07:05:21;;;;;;;209.40;45.30;;;3.10;99.90;196.50;224877.00;;;;7396200;19;20143;-79
2022/03/18 07:07:49;;;;;;;122.57;39.73;;;3.20;99.90;196.50;224877.00;;;;7397186;19;20137;-78
2022/03/18 07:10:16;;;;;;;121.87;40.57;;;3.20;99.90;196.50;224877.00;;;;7400126;19;20488;-79
2022/03/18 07:12:50;;;;;;;227.83;43.30;;;3.20;99.90;196.50;224877.00;;;;7405353;19;20141;-81
2022/03/18 07:15:18;;;;;;;134.00;39.43;;;3.20;99.90;196.50;224877.00;;;;7402493;19;20144;-78
2022/03/18 07:18:02;;;;;;;141.33;42.63;;;3.20;99.90;196.50;224877.00;;;;7406167;19;20173;-78
2022/03/18 07:20:39;;;;;;;155.60;41.20;;;3.30;99.90;196.50;224877.00;;;;7407011;19;20591;-79
2022/03/18 07:23:16;;;;;;;134.00;39.47;;;3.30;99.90;196.50;224877.00;;;;7409169;19;20488;-77
2022/03/18 07:25:51;;;;;;;128.07;39.90;;;3.30;99.90;196.50;224877.00;;;;7406997;19;20172;-80
2022/03/18 07:28:19;;;;;;;121.27;37.97;;;3.30;99.90;196.50;224877.00;;;;7409897;19;20133;-78
2022/03/18 07:30:47;;;;;;;109.73;37.90;;;3.30;99.90;196.50;224877.00;;;;7415809;19;20185;-80
2022/03/18 07:33:21;;;;;;;188.77;42.50;;;3.30;99.90;196.50;224877.00;;;;7426049;19;20144;-81
2022/03/18 07:44:00;;;;;;;120.97;37.70;;;3.30;99.90;196.50;224877.00;;;;7397962;19;20191;-83
2022/03/18 07:58:30;;;;;;;100.50;38.50;;;3.40;99.90;196.50;224877.00;;;;7392619;19;20153;-78
2022/03/18 08:01:05;;;;;;;107.57;38.73;;;3.40;99.90;196.50;224877.00;;;;7399644;19;20542;-79
2022/03/18 08:03:33;;;;;;;96.47;37.50;;;3.30;99.90;196.50;224877.00;;;;7400729;19;20141;-78
2022/03/18 08:06:01;;;;;;;89.17;36.00;;;3.50;99.90;196.50;224877.00;;;;7401322;19;20200;-79
2022/03/18 08:08:36;;;;;;;100.53;38.93;;;3.40;99.90;196.50;224877.00;;;;7403546;19;20487;-81
2022/03/18 08:11:04;;;;;;;88.57;36.83;;;3.40;99.90;196.50;224877.00;;;;7407814;19;20151;-80
2022/03/18 08:13:32;;;;;;;96.73;37.23;;;3.50;99.90;196.50;224877.00;;;;7403366;19;20137;-79
2022/03/18 08:16:07;;;;;;;79.50;36.20;;;3.50;99.90;196.50;224877.00;;;;7404993;19;20132;-79
2022/03/18 08:18:37;;;;;;;76.43;33.30;;;3.50;99.90;196.50;224877.00;;;;7401695;19;20141;-79
2022/03/18 08:21:05;;;;;;;77.13;36.93;;;3.50;99.90;196.50;224877.00;;;;7400903;19;20145;-78
2022/03/18 08:23:38;;;;;;;112.97;36.90;;;3.60;99.90;196.50;224877.00;;;;7399368;19;20208;-79
2022/03/18 08:26:06;;;;;;;87.77;36.57;;;3.60;99.90;196.50;224877.00;;;;7399594;19;20185;-78
2022/03/18 08:28:33;;;;;;;78.40;35.30;;;3.60;99.90;196.50;224877.00;;;;7400061;19;20129;-78
2022/03/18 08:31:07;;;;;;;72.90;33.70;;;3.70;99.90;196.50;224877.00;;;;7399531;19;20132;-79
2022/03/18 08:33:35;;;;;;;82.57;34.73;;;3.70;99.90;196.50;224877.00;;;;7400850;19;20227;-79
2022/03/18 08:36:04;;;;;;;74.07;34.23;;;3.70;99.90;196.50;224877.00;;;;7413615;19;20133;-80
2022/03/18 08:38:39;;;;;;;69.47;34.57;;;3.70;99.90;196.50;224877.00;;;;7416561;19;20128;-80
2022/03/18 08:41:07;;;;;;;67.07;33.63;;;3.70;99.90;196.50;224877.00;;;;7408172;19;20151;-78
2022/03/18 08:43:34;;;;;;;61.73;33.27;;;3.80;99.90;196.50;224877.00;;;;7401247;19;20141;-80
2022/03/18 08:46:08;;;;;;;64.60;33.33;;;3.90;99.90;196.50;224877.00;;;;7404058;19;20161;-79
2022/03/18 08:48:36;;;;;;;58.60;33.97;;;3.90;99.90;196.50;224877.00;;;;7403911;19;20125;-81
2022/03/18 08:51:03;;;;;;;59.03;34.10;;;3.90;99.90;196.50;224877.00;;;;7399106;19;20121;-77
2022/03/18 08:53:38;;;;;;;52.77;32.07;;;4.00;99.90;196.50;224877.00;;;;7399825;19;20128;-78
2022/03/18 08:56:18;;;;;;;55.77;32.67;;;4.00;99.90;196.50;224877.00;;;;7399071;19;20133;-79
2022/03/18 08:58:52;;;;;;;63.30;31.77;;;4.00;27.20;196.50;224877.00;;;;7399620;19;20129;-79
2022/03/18 09:01:19;;;;;;;49.03;30.33;;;4.20;52.00;196.50;224877.00;;;;7408051;19;20140;-81
2022/03/18 09:03:47;;;;;;;49.17;29.47;;;4.20;1.00;196.50;224877.00;;;;7403964;19;20125;-78
2022/03/18 09:06:21;;;;;;;50.73;31.87;;;4.30;1.00;196.50;224877.00;;;;7419062;19;20223;-83
2022/03/18 09:08:49;;;;;;;51.17;28.93;;;4.40;1.00;196.50;224877.00;;;;7427541;19;20137;-82
2022/03/18 09:11:21;;;;;;;47.67;29.33;;;4.40;99.90;196.50;224877.00;;;;7427029;19;20137;-84
2022/03/18 09:14:02;;;;;;;46.47;28.67;;;4.50;99.90;196.50;224877.00;;;;7421684;19;20133;-81
2022/03/18 09:16:36;;;;;;;45.77;27.13;;;4.60;99.90;196.50;224877.00;;;;7423363;19;20169;-81
2022/03/18 09:19:16;;;;;;;39.20;25.30;;;4.70;1.00;196.50;224877.00;;;;7408998;19;20161;-81
2022/03/18 09:21:44;;;;;;;37.57;25.47;;;4.70;1.00;196.50;224877.00;;;;7412507;19;20124;-79
2022/03/18 09:24:19;;;;;;;40.17;25.83;;;4.80;1.00;196.50;224877.00;;;;7396662;19;20215;-79
2022/03/18 09:26:46;;;;;;;37.67;25.87;;;4.90;99.90;196.50;224877.00;;;;7396873;19;20167;-78
2022/03/18 09:29:14;;;;;;;38.20;26.27;;;4.90;99.90;196.50;224877.00;;;;7396598;19;20141;-79
2022/03/18 09:31:48;;;;;;;39.40;27.07;;;4.90;13.70;196.50;224877.00;;;;7406346;19;20152;-82
2022/03/18 09:34:16;;;;;;;35.13;23.83;;;5.00;87.80;196.50;224877.00;;;;7410253;19;20140;-79
2022/03/18 09:36:44;;;;;;;41.17;27.97;;;5.10;1.00;196.50;224877.00;;;;7420103;19;20133;-81
2022/03/18 09:39:23;;;;;;;31.93;23.67;;;5.20;1.00;196.50;224877.00;;;;7396702;19;20241;-81
2022/03/18 09:41:52;;;;;;;35.37;23.80;;;5.20;1.00;196.50;224877.00;;;;7408935;19;20141;-80
2022/03/18 09:44:40;;;;;;;37.87;24.67;;;5.10;1.00;196.50;224877.00;;;;7418565;19;20121;-81
2022/03/18 09:47:09;;;;;;;32.87;22.83;;;5.00;1.00;196.50;224877.00;;;;7419621;19;20137;-82
2022/03/18 09:49:45;;;;;;;34.53;23.80;;;5.00;1.00;196.50;224877.00;;;;7416322;19;20204;-81
2022/03/18 09:52:18;;;;;;;34.07;22.70;;;5.00;1.00;196.50;224877.00;;;;7420612;19;20141;-81
2022/03/18 09:54:54;;;;;;;37.67;22.87;;;5.10;1.00;196.50;224877.00;;;;7421282;19;20140;-82
2022/03/18 09:57:28;;;;;;;35.33;24.63;;;5.10;1.00;196.50;224877.00;;;;7417214;19;20165;-81
2022/03/18 10:00:04;;;;;;;30.67;23.03;;;5.30;1.00;196.50;224877.00;;;;7420306;19;20141;-81
2022/03/18 10:02:34;;;;;;;34.03;22.67;;;5.60;99.90;196.50;224877.00;;;;7421364;19;20133;-82
2022/03/18 10:05:13;;;;;;;31.30;22.80;;;5.70;99.90;196.50;224877.00;;;;7418699;19;20137;-80
2022/03/18 10:08:00;;;;;;;47.50;23.67;;;5.70;46.60;196.50;224877.00;;;;7418232;19;20140;-81
2022/03/18 10:10:47;;;;;;;39.03;22.97;;;5.60;75.30;196.50;224877.00;;;;7420629;19;20132;-81
2022/03/18 10:13:23;;;;;;;31.23;21.93;;;5.70;77.30;196.50;224877.00;;;;7421896;19;20181;-81
2022/03/18 10:15:52;;;;;;;36.10;22.50;;;5.80;1.00;196.50;224877.00;;;;7421579;19;20134;-80
2022/03/18 10:18:20;;;;;;;32.10;22.27;;;5.90;1.00;196.50;224877.00;;;;7419664;19;20158;-81
2022/03/18 10:21:07;;;;;;;31.67;23.07;;;6.10;1.00;196.50;224877.00;;;;7410834;19;20142;-80
2022/03/18 10:23:35;;;;;;;32.20;22.33;;;6.10;1.00;196.50;224877.00;;;;7416406;19;20153;-82
2022/03/18 10:26:09;;;;;;;33.13;22.57;;;6.10;1.00;196.50;224877.00;;;;7411410;19;20191;-81
2022/03/18 10:28:43;;;;;;;34.30;22.30;;;6.30;1.00;196.50;224877.00;;;;7412213;19;20144;-81
2022/03/18 10:37:09;;;;;;;31.70;22.83;;;6.60;99.90;196.50;224877.00;;;;7411140;19;20170;-81
2022/03/18 10:39:43;;;;;;;33.30;23.07;;;6.70;99.90;196.50;224877.00;;;;7413269;19;20117;-80
2022/03/18 10:42:20;;;;;;;33.20;23.67;;;6.90;99.90;196.50;224877.00;;;;7416790;19;20136;-81
2022/03/18 10:44:59;;;;;;;34.07;22.73;;;7.20;1.00;196.50;224877.00;;;;7407758;19;20129;-81
2022/03/18 10:47:45;;;;;;;31.17;24.07;;;7.40;1.00;196.50;224877.00;;;;7420319;19;20137;-82
2022/03/18 10:50:29;;;;;;;31.63;23.20;;;7.20;1.00;196.50;224877.00;;;;7420075;19;20180;-81
2022/03/18 10:53:07;;;;;;;31.90;23.13;;;7.40;1.00;196.50;224877.00;;;;7425405;19;20169;-81
2022/03/18 10:55:44;;;;;;;32.30;22.85;;;7.60;1.00;196.50;224877.00;;;;7426361;19;20129;-80
2022/03/18 10:58:19;;;;;;;28.73;21.90;;;7.70;99.90;196.50;224877.00;;;;7427738;19;20137;-81
2022/03/18 11:00:51;;;;;;;32.67;23.23;;;7.70;99.90;196.50;224877.00;;;;7427201;19;20144;-82
2022/03/18 11:03:31;;;;;;;29.53;22.07;;;7.90;99.90;196.50;224877.00;;;;7424703;19;20144;-80
2022/03/18 11:06:03;;;;;;;33.20;23.90;;;7.80;99.90;196.50;224877.00;;;;7424197;19;20133;-80
2022/03/18 11:08:47;;;;;;;35.33;25.30;;;7.60;1.00;196.50;224877.00;;;;7428159;19;20129;-81
2022/03/18 11:11:27;;;;;;;35.55;25.17;;;7.60;1.00;196.50;224877.00;;;;7430902;19;20156;-82
2022/03/18 11:14:23;;;;;;;37.13;25.40;;;7.80;99.90;196.50;224877.00;;;;7416147;19;20184;-84
2022/03/18 11:17:07;;;;;;;36.87;25.47;;;7.90;99.90;196.50;224877.00;;;;7391029;19;20161;-83
2022/03/18 11:19:44;;;;;;;37.07;25.07;;;7.70;99.90;196.50;224877.00;;;;7427385;19;20144;-81
2022/03/18 11:22:24;;;;;;;39.77;27.10;;;7.60;99.90;196.50;224877.00;;;;7424256;19;20141;-82